sensor_id;sensor_type;location;lat;lon;timestamp;P1;durP1;ratioP1;P2;durP2;ratioP2
12120;SDS011;6124;59.460;17.908;2024-01-10T00:00:42;1.40;;;1.20;;
12120;SDS011;6124;59.460;17.908;2024-01-10T00:03:09;1.40;;;1.03;;
12120;SDS011;6124;59.460;17.908;2024-01-10T00:05:38;1.50;;;1.20;;
12120;SDS011;6124;59.460;17.908;2024-01-10T00:08:05;1.60;;;1.30;;
12120;SDS011;6124;59.460;17.908;2024-01-10T00:10:33;2.00;;;1.10;;
12120;SDS011;6124;59.460;17.908;2024-01-10T00:13:00;1.50;;;1.20;;
12120;SDS011;6124;59.460;17.908;2024-01-10T00:15:27;1.40;;;1.10;;
12120;SDS011;6124;59.460;17.908;2024-01-10T00:17:55;2.50;;;1.27;;
12120;SDS011;6124;59.460;17.908;2024-01-10T00:20:22;1.97;;;1.40;;
12120;SDS011;6124;59.460;17.908;2024-01-10T00:22:51;2.50;;;1.40;;
12120;SDS011;6124;59.460;17.908;2024-01-10T00:25:18;2.13;;;1.40;;
12120;SDS011;6124;59.460;17.908;2024-01-10T00:27:46;2.97;;;1.57;;
12120;SDS011;6124;59.460;17.908;2024-01-10T00:30:13;2.67;;;1.43;;
12120;SDS011;6124;59.460;17.908;2024-01-10T00:32:40;1.40;;;1.20;;
12120;SDS011;6124;59.460;17.908;2024-01-10T00:35:08;2.97;;;1.87;;
12120;SDS011;6124;59.460;17.908;2024-01-10T00:37:36;2.00;;;1.40;;
12120;SDS011;6124;59.460;17.908;2024-01-10T00:40:06;1.53;;;1.30;;
12120;SDS011;6124;59.460;17.908;2024-01-10T00:42:33;2.70;;;1.33;;
12120;SDS011;6124;59.460;17.908;2024-01-10T00:45:01;1.63;;;1.30;;
12120;SDS011;6124;59.460;17.908;2024-01-10T00:47:28;1.47;;;1.30;;
12120;SDS011;6124;59.460;17.908;2024-01-10T00:49:55;1.33;;;1.10;;
12120;SDS011;6124;59.460;17.908;2024-01-10T00:52:23;1.57;;;1.20;;
12120;SDS011;6124;59.460;17.908;2024-01-10T00:54:50;2.23;;;1.33;;
12120;SDS011;6124;59.460;17.908;2024-01-10T00:57:19;2.17;;;1.40;;
12120;SDS011;6124;59.460;17.908;2024-01-10T00:59:46;2.27;;;1.33;;
12120;SDS011;6124;59.460;17.908;2024-01-10T01:02:14;3.50;;;1.20;;
12120;SDS011;6124;59.460;17.908;2024-01-10T01:04:41;2.07;;;1.40;;
12120;SDS011;6124;59.460;17.908;2024-01-10T01:07:08;2.03;;;1.13;;
12120;SDS011;6124;59.460;17.908;2024-01-10T01:09:36;1.33;;;1.20;;
12120;SDS011;6124;59.460;17.908;2024-01-10T01:12:03;1.60;;;1.30;;
12120;SDS011;6124;59.460;17.908;2024-01-10T01:14:32;1.77;;;1.20;;
12120;SDS011;6124;59.460;17.908;2024-01-10T01:17:00;1.30;;;1.20;;
12120;SDS011;6124;59.460;17.908;2024-01-10T01:19:27;1.60;;;1.30;;
12120;SDS011;6124;59.460;17.908;2024-01-10T01:21:55;2.20;;;1.30;;
12120;SDS011;6124;59.460;17.908;2024-01-10T01:24:22;1.17;;;1.00;;
12120;SDS011;6124;59.460;17.908;2024-01-10T01:26:49;1.50;;;1.20;;
12120;SDS011;6124;59.460;17.908;2024-01-10T01:29:17;1.73;;;1.20;;
12120;SDS011;6124;59.460;17.908;2024-01-10T01:31:46;1.33;;;1.10;;
12120;SDS011;6124;59.460;17.908;2024-01-10T01:34:13;2.00;;;1.50;;
12120;SDS011;6124;59.460;17.908;2024-01-10T01:36:41;1.30;;;1.20;;
12120;SDS011;6124;59.460;17.908;2024-01-10T01:39:08;1.60;;;1.20;;
12120;SDS011;6124;59.460;17.908;2024-01-10T01:41:38;1.37;;;1.20;;
12120;SDS011;6124;59.460;17.908;2024-01-10T01:44:05;1.50;;;1.10;;
12120;SDS011;6124;59.460;17.908;2024-01-10T01:46:33;1.37;;;1.10;;
12120;SDS011;6124;59.460;17.908;2024-01-10T01:49:02;1.57;;;1.10;;
12120;SDS011;6124;59.460;17.908;2024-01-10T01:51:29;1.40;;;1.17;;
12120;SDS011;6124;59.460;17.908;2024-01-10T01:53:58;2.60;;;1.20;;
12120;SDS011;6124;59.460;17.908;2024-01-10T01:56:26;1.30;;;0.93;;
12120;SDS011;6124;59.460;17.908;2024-01-10T01:58:53;1.73;;;1.20;;
12120;SDS011;6124;59.460;17.908;2024-01-10T02:01:21;1.40;;;1.13;;
12120;SDS011;6124;59.460;17.908;2024-01-10T02:03:48;1.80;;;1.20;;
12120;SDS011;6124;59.460;17.908;2024-01-10T02:06:18;1.27;;;1.10;;
12120;SDS011;6124;59.460;17.908;2024-01-10T02:08:47;1.37;;;1.20;;
12120;SDS011;6124;59.460;17.908;2024-01-10T02:11:17;1.47;;;1.20;;
12120;SDS011;6124;59.460;17.908;2024-01-10T02:13:46;1.20;;;1.10;;
12120;SDS011;6124;59.460;17.908;2024-01-10T02:16:13;1.17;;;1.00;;
12120;SDS011;6124;59.460;17.908;2024-01-10T02:18:41;1.60;;;1.20;;
12120;SDS011;6124;59.460;17.908;2024-01-10T02:21:08;1.60;;;1.30;;
12120;SDS011;6124;59.460;17.908;2024-01-10T02:23:37;1.70;;;1.20;;
12120;SDS011;6124;59.460;17.908;2024-01-10T02:26:05;1.50;;;1.13;;
12120;SDS011;6124;59.460;17.908;2024-01-10T02:28:33;1.40;;;1.20;;
12120;SDS011;6124;59.460;17.908;2024-01-10T02:31:00;3.10;;;1.43;;
12120;SDS011;6124;59.460;17.908;2024-01-10T02:33:28;1.40;;;1.13;;
12120;SDS011;6124;59.460;17.908;2024-01-10T02:35:55;1.57;;;1.30;;
12120;SDS011;6124;59.460;17.908;2024-01-10T02:38:23;2.33;;;1.30;;
12120;SDS011;6124;59.460;17.908;2024-01-10T02:40:52;1.83;;;1.30;;
12120;SDS011;6124;59.460;17.908;2024-01-10T02:43:22;1.60;;;1.30;;
12120;SDS011;6124;59.460;17.908;2024-01-10T02:45:50;1.43;;;1.17;;
12120;SDS011;6124;59.460;17.908;2024-01-10T02:48:17;1.53;;;1.20;;
12120;SDS011;6124;59.460;17.908;2024-01-10T02:50:44;1.57;;;1.20;;
12120;SDS011;6124;59.460;17.908;2024-01-10T02:53:12;2.57;;;1.50;;
12120;SDS011;6124;59.460;17.908;2024-01-10T02:55:39;1.47;;;1.20;;
12120;SDS011;6124;59.460;17.908;2024-01-10T02:58:06;1.90;;;1.23;;
12120;SDS011;6124;59.460;17.908;2024-01-10T03:00:35;1.70;;;1.10;;
12120;SDS011;6124;59.460;17.908;2024-01-10T03:03:03;1.43;;;1.10;;
12120;SDS011;6124;59.460;17.908;2024-01-10T03:05:30;1.40;;;1.00;;
12120;SDS011;6124;59.460;17.908;2024-01-10T03:07:58;1.10;;;1.00;;
12120;SDS011;6124;59.460;17.908;2024-01-10T03:10:27;1.37;;;1.00;;
12120;SDS011;6124;59.460;17.908;2024-01-10T03:12:55;1.50;;;1.27;;
12120;SDS011;6124;59.460;17.908;2024-01-10T03:15:22;1.67;;;1.20;;
12120;SDS011;6124;59.460;17.908;2024-01-10T03:17:52;1.17;;;1.03;;
12120;SDS011;6124;59.460;17.908;2024-01-10T03:20:19;1.23;;;1.10;;
12120;SDS011;6124;59.460;17.908;2024-01-10T03:22:46;1.63;;;1.20;;
12120;SDS011;6124;59.460;17.908;2024-01-10T03:25:14;1.10;;;0.90;;
12120;SDS011;6124;59.460;17.908;2024-01-10T03:27:41;1.63;;;1.03;;
12120;SDS011;6124;59.460;17.908;2024-01-10T03:30:09;1.37;;;1.10;;
12120;SDS011;6124;59.460;17.908;2024-01-10T03:32:36;2.27;;;1.10;;
12120;SDS011;6124;59.460;17.908;2024-01-10T03:35:06;1.17;;;1.07;;
12120;SDS011;6124;59.460;17.908;2024-01-10T03:37:33;1.03;;;0.90;;
12120;SDS011;6124;59.460;17.908;2024-01-10T03:40:01;1.93;;;1.20;;
12120;SDS011;6124;59.460;17.908;2024-01-10T03:42:28;1.33;;;1.00;;
12120;SDS011;6124;59.460;17.908;2024-01-10T03:44:56;2.33;;;1.10;;
12120;SDS011;6124;59.460;17.908;2024-01-10T03:47:23;1.27;;;0.97;;
12120;SDS011;6124;59.460;17.908;2024-01-10T03:49:50;1.77;;;1.20;;
12120;SDS011;6124;59.460;17.908;2024-01-10T03:52:19;1.20;;;0.93;;
12120;SDS011;6124;59.460;17.908;2024-01-10T03:54:46;1.30;;;1.00;;
12120;SDS011;6124;59.460;17.908;2024-01-10T03:57:14;2.00;;;1.07;;
12120;SDS011;6124;59.460;17.908;2024-01-10T03:59:41;1.03;;;0.90;;
12120;SDS011;6124;59.460;17.908;2024-01-10T04:02:08;1.10;;;1.00;;
12120;SDS011;6124;59.460;17.908;2024-01-10T04:04:36;1.47;;;1.07;;
12120;SDS011;6124;59.460;17.908;2024-01-10T04:07:04;1.43;;;0.87;;
12120;SDS011;6124;59.460;17.908;2024-01-10T04:09:33;3.20;;;1.10;;
12120;SDS011;6124;59.460;17.908;2024-01-10T04:12:00;0.80;;;0.77;;
12120;SDS011;6124;59.460;17.908;2024-01-10T04:14:28;1.47;;;1.13;;
12120;SDS011;6124;59.460;17.908;2024-01-10T04:16:54;2.07;;;1.20;;
12120;SDS011;6124;59.460;17.908;2024-01-10T04:19:21;0.80;;;0.80;;
12120;SDS011;6124;59.460;17.908;2024-01-10T04:21:49;1.33;;;0.93;;
12120;SDS011;6124;59.460;17.908;2024-01-10T04:24:16;0.80;;;0.80;;
12120;SDS011;6124;59.460;17.908;2024-01-10T04:26:45;0.90;;;0.80;;
12120;SDS011;6124;59.460;17.908;2024-01-10T04:29:12;1.53;;;0.80;;
12120;SDS011;6124;59.460;17.908;2024-01-10T04:31:40;1.40;;;1.00;;
12120;SDS011;6124;59.460;17.908;2024-01-10T04:34:07;1.30;;;0.93;;
12120;SDS011;6124;59.460;17.908;2024-01-10T04:36:35;1.40;;;0.80;;
12120;SDS011;6124;59.460;17.908;2024-01-10T04:39:02;1.30;;;0.83;;
12120;SDS011;6124;59.460;17.908;2024-01-10T04:41:29;1.63;;;0.90;;
12120;SDS011;6124;59.460;17.908;2024-01-10T04:43:58;0.90;;;0.70;;
12120;SDS011;6124;59.460;17.908;2024-01-10T04:46:26;1.23;;;0.80;;
12120;SDS011;6124;59.460;17.908;2024-01-10T04:48:53;1.20;;;0.90;;
12120;SDS011;6124;59.460;17.908;2024-01-10T04:51:21;0.77;;;0.70;;
12120;SDS011;6124;59.460;17.908;2024-01-10T04:53:48;0.90;;;0.80;;
12120;SDS011;6124;59.460;17.908;2024-01-10T04:56:15;1.20;;;0.77;;
12120;SDS011;6124;59.460;17.908;2024-01-10T04:58:43;1.80;;;0.80;;
12120;SDS011;6124;59.460;17.908;2024-01-10T05:01:13;0.90;;;0.90;;
12120;SDS011;6124;59.460;17.908;2024-01-10T05:03:40;1.03;;;0.80;;
12120;SDS011;6124;59.460;17.908;2024-01-10T05:06:07;1.10;;;0.90;;
12120;SDS011;6124;59.460;17.908;2024-01-10T05:08:35;1.00;;;0.83;;
12120;SDS011;6124;59.460;17.908;2024-01-10T05:11:03;1.30;;;0.87;;
12120;SDS011;6124;59.460;17.908;2024-01-10T05:13:30;1.20;;;0.70;;
12120;SDS011;6124;59.460;17.908;2024-01-10T05:15:57;1.73;;;1.00;;
12120;SDS011;6124;59.460;17.908;2024-01-10T05:18:26;1.07;;;0.90;;
12120;SDS011;6124;59.460;17.908;2024-01-10T05:20:54;1.10;;;0.90;;
12120;SDS011;6124;59.460;17.908;2024-01-10T05:23:22;1.30;;;0.80;;
12120;SDS011;6124;59.460;17.908;2024-01-10T05:25:50;1.10;;;1.00;;
12120;SDS011;6124;59.460;17.908;2024-01-10T05:28:17;1.07;;;0.80;;
12120;SDS011;6124;59.460;17.908;2024-01-10T05:30:44;0.93;;;0.80;;
12120;SDS011;6124;59.460;17.908;2024-01-10T05:33:12;1.53;;;1.00;;
12120;SDS011;6124;59.460;17.908;2024-01-10T05:35:41;0.70;;;0.70;;
12120;SDS011;6124;59.460;17.908;2024-01-10T05:38:08;0.93;;;0.80;;
12120;SDS011;6124;59.460;17.908;2024-01-10T05:40:35;0.90;;;0.83;;
12120;SDS011;6124;59.460;17.908;2024-01-10T05:43:03;0.67;;;0.67;;
12120;SDS011;6124;59.460;17.908;2024-01-10T05:45:30;1.47;;;0.90;;
12120;SDS011;6124;59.460;17.908;2024-01-10T05:47:58;0.90;;;0.80;;
12120;SDS011;6124;59.460;17.908;2024-01-10T05:50:25;0.80;;;0.73;;
12120;SDS011;6124;59.460;17.908;2024-01-10T05:52:54;1.03;;;0.80;;
12120;SDS011;6124;59.460;17.908;2024-01-10T05:55:21;1.47;;;0.90;;
12120;SDS011;6124;59.460;17.908;2024-01-10T05:57:50;0.83;;;0.83;;
12120;SDS011;6124;59.460;17.908;2024-01-10T06:00:17;1.17;;;0.90;;
12120;SDS011;6124;59.460;17.908;2024-01-10T06:02:46;1.43;;;1.10;;
12120;SDS011;6124;59.460;17.908;2024-01-10T06:05:13;1.00;;;0.90;;
12120;SDS011;6124;59.460;17.908;2024-01-10T06:07:41;1.93;;;1.00;;
12120;SDS011;6124;59.460;17.908;2024-01-10T06:10:09;1.43;;;0.93;;
12120;SDS011;6124;59.460;17.908;2024-01-10T06:12:37;1.43;;;0.90;;
12120;SDS011;6124;59.460;17.908;2024-01-10T06:15:05;1.30;;;1.00;;
12120;SDS011;6124;59.460;17.908;2024-01-10T06:17:32;1.07;;;0.73;;
12120;SDS011;6124;59.460;17.908;2024-01-10T06:20:00;2.27;;;1.00;;
12120;SDS011;6124;59.460;17.908;2024-01-10T06:22:28;1.20;;;1.10;;
12120;SDS011;6124;59.460;17.908;2024-01-10T06:24:56;2.37;;;1.00;;
12120;SDS011;6124;59.460;17.908;2024-01-10T06:27:25;1.10;;;1.00;;
12120;SDS011;6124;59.460;17.908;2024-01-10T06:29:53;1.10;;;0.80;;
12120;SDS011;6124;59.460;17.908;2024-01-10T06:32:20;1.00;;;0.90;;
12120;SDS011;6124;59.460;17.908;2024-01-10T06:34:47;1.10;;;1.00;;
12120;SDS011;6124;59.460;17.908;2024-01-10T06:37:15;1.50;;;0.80;;
12120;SDS011;6124;59.460;17.908;2024-01-10T06:39:42;1.73;;;0.90;;
12120;SDS011;6124;59.460;17.908;2024-01-10T06:42:10;1.17;;;0.90;;
12120;SDS011;6124;59.460;17.908;2024-01-10T06:44:39;1.47;;;1.00;;
12120;SDS011;6124;59.460;17.908;2024-01-10T06:47:07;1.57;;;1.00;;
12120;SDS011;6124;59.460;17.908;2024-01-10T06:49:35;1.33;;;0.90;;
12120;SDS011;6124;59.460;17.908;2024-01-10T06:52:03;1.53;;;0.93;;
12120;SDS011;6124;59.460;17.908;2024-01-10T06:54:32;1.17;;;1.03;;
12120;SDS011;6124;59.460;17.908;2024-01-10T06:57:00;1.20;;;0.90;;
12120;SDS011;6124;59.460;17.908;2024-01-10T06:59:27;1.13;;;0.90;;
12120;SDS011;6124;59.460;17.908;2024-01-10T07:01:56;1.00;;;0.90;;
12120;SDS011;6124;59.460;17.908;2024-01-10T07:04:25;0.90;;;0.80;;
12120;SDS011;6124;59.460;17.908;2024-01-10T07:06:53;0.70;;;0.70;;
12120;SDS011;6124;59.460;17.908;2024-01-10T07:09:20;1.40;;;0.90;;
12120;SDS011;6124;59.460;17.908;2024-01-10T07:11:48;2.23;;;1.13;;
12120;SDS011;6124;59.460;17.908;2024-01-10T07:14:15;2.33;;;1.30;;
12120;SDS011;6124;59.460;17.908;2024-01-10T07:16:43;1.60;;;1.20;;
12120;SDS011;6124;59.460;17.908;2024-01-10T07:19:12;3.23;;;1.17;;
12120;SDS011;6124;59.460;17.908;2024-01-10T07:21:40;1.70;;;1.17;;
12120;SDS011;6124;59.460;17.908;2024-01-10T07:24:07;1.80;;;1.10;;
12120;SDS011;6124;59.460;17.908;2024-01-10T07:26:35;1.30;;;1.10;;
12120;SDS011;6124;59.460;17.908;2024-01-10T07:29:02;2.30;;;1.63;;
12120;SDS011;6124;59.460;17.908;2024-01-10T07:31:33;2.30;;;1.43;;
12120;SDS011;6124;59.460;17.908;2024-01-10T07:34:00;3.77;;;2.30;;
12120;SDS011;6124;59.460;17.908;2024-01-10T07:36:31;2.80;;;1.80;;
12120;SDS011;6124;59.460;17.908;2024-01-10T07:38:59;3.03;;;1.97;;
12120;SDS011;6124;59.460;17.908;2024-01-10T07:41:27;2.60;;;2.00;;
12120;SDS011;6124;59.460;17.908;2024-01-10T07:43:54;2.13;;;1.67;;
12120;SDS011;6124;59.460;17.908;2024-01-10T07:46:22;3.13;;;1.87;;
12120;SDS011;6124;59.460;17.908;2024-01-10T07:48:49;2.20;;;1.70;;
12120;SDS011;6124;59.460;17.908;2024-01-10T07:51:17;2.47;;;1.40;;
12120;SDS011;6124;59.460;17.908;2024-01-10T07:53:46;2.00;;;1.40;;
12120;SDS011;6124;59.460;17.908;2024-01-10T07:56:13;2.30;;;1.67;;
12120;SDS011;6124;59.460;17.908;2024-01-10T07:58:41;2.27;;;1.10;;
12120;SDS011;6124;59.460;17.908;2024-01-10T08:01:08;1.50;;;1.30;;
12120;SDS011;6124;59.460;17.908;2024-01-10T08:03:36;1.20;;;1.03;;
12120;SDS011;6124;59.460;17.908;2024-01-10T08:06:04;1.63;;;1.20;;
12120;SDS011;6124;59.460;17.908;2024-01-10T08:08:32;1.17;;;1.00;;
12120;SDS011;6124;59.460;17.908;2024-01-10T08:11:01;2.60;;;1.20;;
12120;SDS011;6124;59.460;17.908;2024-01-10T08:13:29;1.33;;;1.00;;
12120;SDS011;6124;59.460;17.908;2024-01-10T08:15:56;1.10;;;1.00;;
12120;SDS011;6124;59.460;17.908;2024-01-10T08:18:23;1.20;;;0.90;;
12120;SDS011;6124;59.460;17.908;2024-01-10T08:20:51;1.77;;;0.80;;
12120;SDS011;6124;59.460;17.908;2024-01-10T08:23:20;0.80;;;0.80;;
12120;SDS011;6124;59.460;17.908;2024-01-10T08:25:47;0.83;;;0.80;;
12120;SDS011;6124;59.460;17.908;2024-01-10T08:28:16;0.90;;;0.80;;
12120;SDS011;6124;59.460;17.908;2024-01-10T08:30:44;1.87;;;0.90;;
12120;SDS011;6124;59.460;17.908;2024-01-10T08:33:11;0.87;;;0.83;;
12120;SDS011;6124;59.460;17.908;2024-01-10T08:35:39;1.10;;;0.70;;
12120;SDS011;6124;59.460;17.908;2024-01-10T08:38:07;1.17;;;0.73;;
12120;SDS011;6124;59.460;17.908;2024-01-10T08:40:35;1.00;;;0.80;;
12120;SDS011;6124;59.460;17.908;2024-01-10T08:43:02;1.80;;;0.80;;
12120;SDS011;6124;59.460;17.908;2024-01-10T08:45:31;0.70;;;0.70;;
12120;SDS011;6124;59.460;17.908;2024-01-10T08:47:59;1.63;;;0.90;;
12120;SDS011;6124;59.460;17.908;2024-01-10T08:50:26;1.27;;;0.87;;
12120;SDS011;6124;59.460;17.908;2024-01-10T08:52:53;0.60;;;0.60;;
12120;SDS011;6124;59.460;17.908;2024-01-10T08:55:21;0.97;;;0.77;;
12120;SDS011;6124;59.460;17.908;2024-01-10T08:57:48;1.20;;;0.80;;
12120;SDS011;6124;59.460;17.908;2024-01-10T09:00:16;1.03;;;0.77;;
12120;SDS011;6124;59.460;17.908;2024-01-10T09:02:44;1.20;;;0.80;;
12120;SDS011;6124;59.460;17.908;2024-01-10T09:05:12;0.87;;;0.80;;
12120;SDS011;6124;59.460;17.908;2024-01-10T09:07:39;1.60;;;0.83;;
12120;SDS011;6124;59.460;17.908;2024-01-10T09:10:07;0.63;;;0.63;;
12120;SDS011;6124;59.460;17.908;2024-01-10T09:12:35;1.03;;;0.77;;
12120;SDS011;6124;59.460;17.908;2024-01-10T09:15:02;1.30;;;0.90;;
12120;SDS011;6124;59.460;17.908;2024-01-10T09:17:30;0.93;;;0.70;;
12120;SDS011;6124;59.460;17.908;2024-01-10T09:19:58;1.00;;;0.60;;
12120;SDS011;6124;59.460;17.908;2024-01-10T09:22:27;1.03;;;0.73;;
12120;SDS011;6124;59.460;17.908;2024-01-10T09:24:55;1.23;;;0.70;;
12120;SDS011;6124;59.460;17.908;2024-01-10T09:27:24;1.13;;;0.70;;
12120;SDS011;6124;59.460;17.908;2024-01-10T09:29:52;0.70;;;0.63;;
12120;SDS011;6124;59.460;17.908;2024-01-10T09:32:19;2.00;;;0.93;;
12120;SDS011;6124;59.460;17.908;2024-01-10T09:34:47;1.60;;;0.70;;
12120;SDS011;6124;59.460;17.908;2024-01-10T09:37:16;0.70;;;0.60;;
12120;SDS011;6124;59.460;17.908;2024-01-10T09:39:43;0.70;;;0.70;;
12120;SDS011;6124;59.460;17.908;2024-01-10T09:42:10;1.70;;;0.80;;
12120;SDS011;6124;59.460;17.908;2024-01-10T09:44:38;0.70;;;0.60;;
12120;SDS011;6124;59.460;17.908;2024-01-10T09:47:05;0.63;;;0.53;;
12120;SDS011;6124;59.460;17.908;2024-01-10T09:49:33;0.80;;;0.80;;
12120;SDS011;6124;59.460;17.908;2024-01-10T09:52:02;2.13;;;0.73;;
12120;SDS011;6124;59.460;17.908;2024-01-10T09:54:32;0.57;;;0.53;;
12120;SDS011;6124;59.460;17.908;2024-01-10T09:57:01;0.90;;;0.70;;
12120;SDS011;6124;59.460;17.908;2024-01-10T09:59:28;1.40;;;0.70;;
12120;SDS011;6124;59.460;17.908;2024-01-10T10:01:56;0.80;;;0.80;;
12120;SDS011;6124;59.460;17.908;2024-01-10T10:04:24;1.13;;;0.70;;
12120;SDS011;6124;59.460;17.908;2024-01-10T10:06:58;1.10;;;0.73;;
12120;SDS011;6124;59.460;17.908;2024-01-10T10:09:26;0.70;;;0.60;;
12120;SDS011;6124;59.460;17.908;2024-01-10T10:11:56;1.57;;;1.10;;
12120;SDS011;6124;59.460;17.908;2024-01-10T10:14:23;0.80;;;0.70;;
12120;SDS011;6124;59.460;17.908;2024-01-10T10:16:52;0.97;;;0.80;;
12120;SDS011;6124;59.460;17.908;2024-01-10T10:19:22;1.60;;;1.00;;
12120;SDS011;6124;59.460;17.908;2024-01-10T10:21:50;0.97;;;0.70;;
12120;SDS011;6124;59.460;17.908;2024-01-10T10:24:17;1.60;;;0.73;;
12120;SDS011;6124;59.460;17.908;2024-01-10T10:26:44;0.80;;;0.70;;
12120;SDS011;6124;59.460;17.908;2024-01-10T10:29:14;1.33;;;0.93;;
12120;SDS011;6124;59.460;17.908;2024-01-10T10:31:46;1.00;;;0.80;;
12120;SDS011;6124;59.460;17.908;2024-01-10T10:34:16;1.27;;;0.87;;
12120;SDS011;6124;59.460;17.908;2024-01-10T10:36:47;1.00;;;0.90;;
12120;SDS011;6124;59.460;17.908;2024-01-10T10:39:15;1.27;;;0.93;;
12120;SDS011;6124;59.460;17.908;2024-01-10T10:41:43;1.00;;;0.90;;
12120;SDS011;6124;59.460;17.908;2024-01-10T10:44:11;1.00;;;0.87;;
12120;SDS011;6124;59.460;17.908;2024-01-10T10:46:41;0.83;;;0.80;;
12120;SDS011;6124;59.460;17.908;2024-01-10T10:49:11;1.90;;;0.97;;
12120;SDS011;6124;59.460;17.908;2024-01-10T10:51:38;1.77;;;0.90;;
12120;SDS011;6124;59.460;17.908;2024-01-10T10:54:06;1.07;;;0.90;;
12120;SDS011;6124;59.460;17.908;2024-01-10T10:56:34;1.20;;;0.90;;
12120;SDS011;6124;59.460;17.908;2024-01-10T10:59:03;0.90;;;0.90;;
12120;SDS011;6124;59.460;17.908;2024-01-10T11:01:31;0.87;;;0.80;;
12120;SDS011;6124;59.460;17.908;2024-01-10T11:04:00;1.37;;;0.70;;
12120;SDS011;6124;59.460;17.908;2024-01-10T11:06:29;2.17;;;0.80;;
12120;SDS011;6124;59.460;17.908;2024-01-10T11:08:58;3.00;;;1.00;;
12120;SDS011;6124;59.460;17.908;2024-01-10T11:11:30;1.23;;;0.80;;
12120;SDS011;6124;59.460;17.908;2024-01-10T11:14:07;1.20;;;0.97;;
12120;SDS011;6124;59.460;17.908;2024-01-10T11:19:58;2.40;;;0.97;;
12120;SDS011;6124;59.460;17.908;2024-01-10T11:22:38;1.43;;;0.90;;
12120;SDS011;6124;59.460;17.908;2024-01-10T11:25:10;1.30;;;0.63;;
12120;SDS011;6124;59.460;17.908;2024-01-10T11:27:39;1.07;;;0.70;;
12120;SDS011;6124;59.460;17.908;2024-01-10T11:30:07;0.90;;;0.70;;
12120;SDS011;6124;59.460;17.908;2024-01-10T11:32:34;0.67;;;0.67;;
12120;SDS011;6124;59.460;17.908;2024-01-10T11:35:10;1.07;;;0.70;;
12120;SDS011;6124;59.460;17.908;2024-01-10T11:37:39;1.00;;;0.50;;
12120;SDS011;6124;59.460;17.908;2024-01-10T11:40:09;1.40;;;0.80;;
12120;SDS011;6124;59.460;17.908;2024-01-10T11:42:43;1.10;;;0.70;;
12120;SDS011;6124;59.460;17.908;2024-01-10T11:45:15;0.90;;;0.70;;
12120;SDS011;6124;59.460;17.908;2024-01-10T11:48:03;0.93;;;0.57;;
12120;SDS011;6124;59.460;17.908;2024-01-10T11:50:31;1.43;;;0.80;;
12120;SDS011;6124;59.460;17.908;2024-01-10T11:52:59;0.93;;;0.80;;
12120;SDS011;6124;59.460;17.908;2024-01-10T11:55:46;1.80;;;0.63;;
12120;SDS011;6124;59.460;17.908;2024-01-10T11:58:14;1.17;;;0.70;;
12120;SDS011;6124;59.460;17.908;2024-01-10T12:00:41;1.37;;;0.90;;
12120;SDS011;6124;59.460;17.908;2024-01-10T12:03:09;1.73;;;0.90;;
12120;SDS011;6124;59.460;17.908;2024-01-10T12:05:38;2.47;;;0.73;;
12120;SDS011;6124;59.460;17.908;2024-01-10T12:08:07;0.70;;;0.70;;
12120;SDS011;6124;59.460;17.908;2024-01-10T12:10:34;0.93;;;0.80;;
12120;SDS011;6124;59.460;17.908;2024-01-10T12:13:03;1.30;;;0.80;;
12120;SDS011;6124;59.460;17.908;2024-01-10T12:15:30;1.13;;;1.00;;
12120;SDS011;6124;59.460;17.908;2024-01-10T12:17:58;1.13;;;0.80;;
12120;SDS011;6124;59.460;17.908;2024-01-10T12:20:25;1.00;;;0.70;;
12120;SDS011;6124;59.460;17.908;2024-01-10T12:22:55;1.50;;;0.90;;
12120;SDS011;6124;59.460;17.908;2024-01-10T12:25:22;0.93;;;0.70;;
12120;SDS011;6124;59.460;17.908;2024-01-10T12:27:50;1.20;;;1.00;;
12120;SDS011;6124;59.460;17.908;2024-01-10T12:30:18;1.63;;;0.70;;
12120;SDS011;6124;59.460;17.908;2024-01-10T12:32:49;1.10;;;0.80;;
12120;SDS011;6124;59.460;17.908;2024-01-10T12:35:17;1.17;;;0.80;;
12120;SDS011;6124;59.460;17.908;2024-01-10T12:37:53;1.57;;;0.80;;
12120;SDS011;6124;59.460;17.908;2024-01-10T12:40:22;2.20;;;0.80;;
12120;SDS011;6124;59.460;17.908;2024-01-10T12:43:01;0.80;;;0.80;;
12120;SDS011;6124;59.460;17.908;2024-01-10T12:45:28;0.90;;;0.70;;
12120;SDS011;6124;59.460;17.908;2024-01-10T12:47:56;0.87;;;0.67;;
12120;SDS011;6124;59.460;17.908;2024-01-10T12:50:24;1.00;;;0.77;;
12120;SDS011;6124;59.460;17.908;2024-01-10T12:52:51;0.70;;;0.57;;
12120;SDS011;6124;59.460;17.908;2024-01-10T12:55:19;0.70;;;0.67;;
12120;SDS011;6124;59.460;17.908;2024-01-10T12:57:48;1.47;;;0.97;;
12120;SDS011;6124;59.460;17.908;2024-01-10T13:00:15;1.80;;;1.00;;
12120;SDS011;6124;59.460;17.908;2024-01-10T13:02:43;1.07;;;0.90;;
12120;SDS011;6124;59.460;17.908;2024-01-10T13:05:12;1.23;;;0.80;;
12120;SDS011;6124;59.460;17.908;2024-01-10T13:07:40;0.97;;;0.73;;
12120;SDS011;6124;59.460;17.908;2024-01-10T13:10:08;1.53;;;1.00;;
12120;SDS011;6124;59.460;17.908;2024-01-10T13:12:35;1.53;;;0.83;;
12120;SDS011;6124;59.460;17.908;2024-01-10T13:15:04;1.20;;;0.80;;
12120;SDS011;6124;59.460;17.908;2024-01-10T13:17:32;1.10;;;0.80;;
12120;SDS011;6124;59.460;17.908;2024-01-10T13:19:59;1.17;;;0.77;;
12120;SDS011;6124;59.460;17.908;2024-01-10T13:22:28;1.60;;;0.87;;
12120;SDS011;6124;59.460;17.908;2024-01-10T13:24:56;1.57;;;0.80;;
12120;SDS011;6124;59.460;17.908;2024-01-10T13:27:23;1.17;;;0.60;;
12120;SDS011;6124;59.460;17.908;2024-01-10T13:29:50;1.10;;;0.70;;
12120;SDS011;6124;59.460;17.908;2024-01-10T13:32:19;1.30;;;0.60;;
12120;SDS011;6124;59.460;17.908;2024-01-10T13:34:47;1.13;;;0.60;;
12120;SDS011;6124;59.460;17.908;2024-01-10T13:37:14;1.13;;;0.73;;
12120;SDS011;6124;59.460;17.908;2024-01-10T13:39:41;0.70;;;0.70;;
12120;SDS011;6124;59.460;17.908;2024-01-10T13:42:09;1.17;;;0.70;;
12120;SDS011;6124;59.460;17.908;2024-01-10T13:44:36;3.00;;;0.80;;
12120;SDS011;6124;59.460;17.908;2024-01-10T13:47:04;1.00;;;0.70;;
12120;SDS011;6124;59.460;17.908;2024-01-10T13:49:33;1.80;;;0.87;;
12120;SDS011;6124;59.460;17.908;2024-01-10T13:52:00;2.40;;;0.93;;
12120;SDS011;6124;59.460;17.908;2024-01-10T13:54:27;0.93;;;0.60;;
12120;SDS011;6124;59.460;17.908;2024-01-10T13:56:55;0.90;;;0.63;;
12120;SDS011;6124;59.460;17.908;2024-01-10T13:59:22;1.63;;;1.00;;
12120;SDS011;6124;59.460;17.908;2024-01-10T14:01:49;1.17;;;0.77;;
12120;SDS011;6124;59.460;17.908;2024-01-10T14:04:16;1.23;;;0.90;;
12120;SDS011;6124;59.460;17.908;2024-01-10T14:06:45;1.03;;;0.70;;
12120;SDS011;6124;59.460;17.908;2024-01-10T14:09:12;1.50;;;0.90;;
12120;SDS011;6124;59.460;17.908;2024-01-10T14:11:40;2.93;;;1.13;;
12120;SDS011;6124;59.460;17.908;2024-01-10T14:14:07;1.50;;;1.00;;
12120;SDS011;6124;59.460;17.908;2024-01-10T14:16:35;3.23;;;1.10;;
12120;SDS011;6124;59.460;17.908;2024-01-10T14:19:02;1.43;;;0.90;;
12120;SDS011;6124;59.460;17.908;2024-01-10T14:21:30;1.40;;;1.00;;
12120;SDS011;6124;59.460;17.908;2024-01-10T14:23:59;1.43;;;1.10;;
12120;SDS011;6124;59.460;17.908;2024-01-10T14:26:26;1.10;;;0.90;;
12120;SDS011;6124;59.460;17.908;2024-01-10T14:28:54;1.60;;;1.17;;
12120;SDS011;6124;59.460;17.908;2024-01-10T14:31:22;2.20;;;1.00;;
12120;SDS011;6124;59.460;17.908;2024-01-10T14:33:49;1.07;;;0.97;;
12120;SDS011;6124;59.460;17.908;2024-01-10T14:36:16;1.97;;;1.27;;
12120;SDS011;6124;59.460;17.908;2024-01-10T14:38:44;1.70;;;0.90;;
12120;SDS011;6124;59.460;17.908;2024-01-10T14:41:12;1.40;;;1.00;;
12120;SDS011;6124;59.460;17.908;2024-01-10T14:43:40;1.20;;;1.00;;
12120;SDS011;6124;59.460;17.908;2024-01-10T14:46:07;1.10;;;0.90;;
12120;SDS011;6124;59.460;17.908;2024-01-10T14:48:35;1.17;;;1.00;;
12120;SDS011;6124;59.460;17.908;2024-01-10T14:51:03;2.13;;;1.00;;
12120;SDS011;6124;59.460;17.908;2024-01-10T14:53:30;1.43;;;0.80;;
12120;SDS011;6124;59.460;17.908;2024-01-10T14:56:00;1.20;;;0.90;;